sensor_id;sensor_type;location;lat;lon;timestamp;pressure;altitude;pressure_sealevel;temperature;humidity
11190;BME280;5651;50.926;4.718;2023-01-25T00:02:04;103588.25;;;1.34;100.00
11190;BME280;5651;50.926;4.718;2023-01-25T00:04:30;103583.22;;;1.36;100.00
11190;BME280;5651;50.926;4.718;2023-01-25T00:06:56;103580.91;;;1.39;100.00
11190;BME280;5651;50.926;4.718;2023-01-25T00:09:23;103577.97;;;1.34;100.00
11190;BME280;5651;50.926;4.718;2023-01-25T00:11:48;103567.72;;;1.34;100.00
11190;BME280;5651;50.926;4.718;2023-01-25T00:14:15;103564.66;;;1.28;100.00
11190;BME280;5651;50.926;4.718;2023-01-25T00:16:41;103563.88;;;1.29;100.00
11190;BME280;5651;50.926;4.718;2023-01-25T00:19:08;103565.00;;;1.33;100.00
11190;BME280;5651;50.926;4.718;2023-01-25T00:21:34;103565.44;;;1.27;100.00
11190;BME280;5651;50.926;4.718;2023-01-25T00:24:01;103567.88;;;1.25;100.00
11190;BME280;5651;50.926;4.718;2023-01-25T00:26:30;103554.81;;;1.22;100.00
11190;BME280;5651;50.926;4.718;2023-01-25T00:28:57;103552.59;;;1.27;100.00
11190;BME280;5651;50.926;4.718;2023-01-25T00:31:31;103552.91;;;1.20;100.00
11190;BME280;5651;50.926;4.718;2023-01-25T00:39:01;103548.91;;;1.23;100.00
11190;BME280;5651;50.926;4.718;2023-01-25T00:41:27;103547.31;;;1.25;100.00
11190;BME280;5651;50.926;4.718;2023-01-25T00:43:53;103542.47;;;1.18;100.00
11190;BME280;5651;50.926;4.718;2023-01-25T00:46:18;103542.25;;;1.15;100.00
11190;BME280;5651;50.926;4.718;2023-01-25T00:48:44;103538.94;;;1.16;100.00
11190;BME280;5651;50.926;4.718;2023-01-25T00:51:10;103542.47;;;1.18;100.00
11190;BME280;5651;50.926;4.718;2023-01-25T00:53:36;103546.63;;;1.16;100.00
11190;BME280;5651;50.926;4.718;2023-01-25T00:56:02;103546.63;;;1.16;100.00
11190;BME280;5651;50.926;4.718;2023-01-25T00:58:28;103541.25;;;1.13;100.00
11190;BME280;5651;50.926;4.718;2023-01-25T01:00:55;103539.28;;;1.21;100.00
11190;BME280;5651;50.926;4.718;2023-01-25T01:03:21;103540.06;;;1.20;100.00
11190;BME280;5651;50.926;4.718;2023-01-25T01:05:47;103534.94;;;1.20;100.00
11190;BME280;5651;50.926;4.718;2023-01-25T01:08:13;103540.84;;;1.19;100.00
11190;BME280;5651;50.926;4.718;2023-01-25T01:10:40;103539.91;;;1.18;100.00
11190;BME280;5651;50.926;4.718;2023-01-25T01:13:06;103536.47;;;1.18;100.00
11190;BME280;5651;50.926;4.718;2023-01-25T01:15:36;103534.94;;;1.20;100.00
11190;BME280;5651;50.926;4.718;2023-01-25T01:18:02;103523.38;;;1.15;100.00
11190;BME280;5651;50.926;4.718;2023-01-25T01:20:27;103528.50;;;1.15;100.00
11190;BME280;5651;50.926;4.718;2023-01-25T01:22:53;103517.47;;;1.16;100.00
11190;BME280;5651;50.926;4.718;2023-01-25T01:25:21;103524.81;;;1.11;100.00
11190;BME280;5651;50.926;4.718;2023-01-25T01:27:47;103512.75;;;1.10;100.00
11190;BME280;5651;50.926;4.718;2023-01-25T01:30:13;103519.75;;;1.01;100.00
11190;BME280;5651;50.926;4.718;2023-01-25T01:32:38;103518.63;;;0.97;100.00
11190;BME280;5651;50.926;4.718;2023-01-25T01:35:05;103515.28;;;0.98;100.00
11190;BME280;5651;50.926;4.718;2023-01-25T01:37:30;103526.91;;;1.05;100.00
11190;BME280;5651;50.926;4.718;2023-01-25T01:39:56;103525.25;;;1.05;100.00
11190;BME280;5651;50.926;4.718;2023-01-25T01:42:22;103531.38;;;1.07;100.00
11190;BME280;5651;50.926;4.718;2023-01-25T01:44:50;103527.16;;;1.08;100.00
11190;BME280;5651;50.926;4.718;2023-01-25T01:47:26;103534.97;;;1.09;100.00
11190;BME280;5651;50.926;4.718;2023-01-25T01:49:57;103539.84;;;1.06;100.00
11190;BME280;5651;50.926;4.718;2023-01-25T01:52:28;103538.09;;;1.05;100.00
11190;BME280;5651;50.926;4.718;2023-01-25T01:55:02;103533.59;;;1.03;100.00
11190;BME280;5651;50.926;4.718;2023-01-25T01:57:34;103530.13;;;1.02;100.00
11190;BME280;5651;50.926;4.718;2023-01-25T02:00:09;103530.03;;;1.01;100.00
11190;BME280;5651;50.926;4.718;2023-01-25T02:02:36;103528.44;;;1.03;100.00
11190;BME280;5651;50.926;4.718;2023-01-25T02:05:04;103532.59;;;1.01;100.00
11190;BME280;5651;50.926;4.718;2023-01-25T02:07:33;103532.88;;;0.93;100.00
11190;BME280;5651;50.926;4.718;2023-01-25T02:10:00;103535.56;;;0.95;100.00
11190;BME280;5651;50.926;4.718;2023-01-25T02:12:26;103535.44;;;0.93;100.00
11190;BME280;5651;50.926;4.718;2023-01-25T02:14:53;103528.63;;;0.94;100.00
11190;BME280;5651;50.926;4.718;2023-01-25T02:17:31;103538.50;;;1.00;100.00
11190;BME280;5651;50.926;4.718;2023-01-25T02:22:35;103528.59;;;1.04;100.00
11190;BME280;5651;50.926;4.718;2023-01-25T02:25:08;103534.38;;;1.02;100.00
11190;BME280;5651;50.926;4.718;2023-01-25T02:27:38;103529.03;;;0.88;100.00
11190;BME280;5651;50.926;4.718;2023-01-25T02:30:06;103527.75;;;0.93;100.00
11190;BME280;5651;50.926;4.718;2023-01-25T02:32:32;103527.59;;;0.92;100.00
11190;BME280;5651;50.926;4.718;2023-01-25T02:34:58;103529.28;;;0.91;100.00
11190;BME280;5651;50.926;4.718;2023-01-25T02:37:24;103520.81;;;0.92;100.00
11190;BME280;5651;50.926;4.718;2023-01-25T02:39:50;103517.34;;;0.92;100.00
11190;BME280;5651;50.926;4.718;2023-01-25T02:42:16;103508.22;;;0.95;100.00
11190;BME280;5651;50.926;4.718;2023-01-25T02:44:42;103516.06;;;0.97;100.00
11190;BME280;5651;50.926;4.718;2023-01-25T02:47:08;103520.53;;;1.00;100.00
11190;BME280;5651;50.926;4.718;2023-01-25T02:49:37;103520.34;;;0.86;100.00
11190;BME280;5651;50.926;4.718;2023-01-25T02:52:03;103517.22;;;0.90;100.00
11190;BME280;5651;50.926;4.718;2023-01-25T02:54:29;103513.88;;;0.91;100.00
11190;BME280;5651;50.926;4.718;2023-01-25T02:56:55;103520.56;;;0.89;100.00
11190;BME280;5651;50.926;4.718;2023-01-25T02:59:21;103509.41;;;0.89;100.00
11190;BME280;5651;50.926;4.718;2023-01-25T03:01:47;103514.56;;;0.89;100.00
11190;BME280;5651;50.926;4.718;2023-01-25T03:04:13;103510.28;;;0.89;100.00
11190;BME280;5651;50.926;4.718;2023-01-25T03:06:39;103510.28;;;0.89;100.00
11190;BME280;5651;50.926;4.718;2023-01-25T03:09:07;103507.16;;;0.82;100.00
11190;BME280;5651;50.926;4.718;2023-01-25T03:11:33;103506.84;;;0.89;100.00
11190;BME280;5651;50.926;4.718;2023-01-25T03:13:59;103501.81;;;0.90;100.00
11190;BME280;5651;50.926;4.718;2023-01-25T03:16:25;103504.66;;;0.93;100.00
11190;BME280;5651;50.926;4.718;2023-01-25T03:18:54;103500.94;;;0.90;100.00
11190;BME280;5651;50.926;4.718;2023-01-25T03:21:21;103495.66;;;0.88;100.00
11190;BME280;5651;50.926;4.718;2023-01-25T03:23:47;103497.09;;;0.85;100.00
11190;BME280;5651;50.926;4.718;2023-01-25T03:26:20;103494.69;;;0.86;100.00
11190;BME280;5651;50.926;4.718;2023-01-25T03:28:46;103496.59;;;0.89;100.00
11190;BME280;5651;50.926;4.718;2023-01-25T03:31:14;103499.56;;;0.83;100.00
11190;BME280;5651;50.926;4.718;2023-01-25T03:33:41;103491.97;;;0.85;100.00
11190;BME280;5651;50.926;4.718;2023-01-25T03:36:07;103489.19;;;0.82;100.00
11190;BME280;5651;50.926;4.718;2023-01-25T03:38:34;103495.50;;;0.75;100.00
11190;BME280;5651;50.926;4.718;2023-01-25T03:41:00;103494.06;;;0.78;100.00
11190;BME280;5651;50.926;4.718;2023-01-25T03:43:27;103490.38;;;0.65;100.00
11190;BME280;5651;50.926;4.718;2023-01-25T03:45:55;103486.75;;;0.73;100.00
11190;BME280;5651;50.926;4.718;2023-01-25T03:48:21;103480.84;;;0.74;100.00
11190;BME280;5651;50.926;4.718;2023-01-25T03:50:51;103476.09;;;0.78;100.00
11190;BME280;5651;50.926;4.718;2023-01-25T03:53:26;103479.84;;;0.72;100.00
11190;BME280;5651;50.926;4.718;2023-01-25T03:56:02;103474.69;;;0.72;100.00
11190;BME280;5651;50.926;4.718;2023-01-25T03:58:28;103473.06;;;0.72;100.00
11190;BME280;5651;50.926;4.718;2023-01-25T04:00:56;103470.00;;;0.66;100.00
11190;BME280;5651;50.926;4.718;2023-01-25T04:03:22;103477.94;;;0.69;100.00
11190;BME280;5651;50.926;4.718;2023-01-25T04:05:50;103480.78;;;0.62;100.00
11190;BME280;5651;50.926;4.718;2023-01-25T04:08:16;103478.38;;;0.63;100.00
11190;BME280;5651;50.926;4.718;2023-01-25T04:10:42;103479.34;;;0.66;100.00
11190;BME280;5651;50.926;4.718;2023-01-25T04:13:08;103474.22;;;0.66;100.00
11190;BME280;5651;50.926;4.718;2023-01-25T04:15:34;103469.25;;;0.67;100.00
11190;BME280;5651;50.926;4.718;2023-01-25T04:18:00;103473.47;;;0.67;100.00
11190;BME280;5651;50.926;4.718;2023-01-25T04:20:26;103471.16;;;0.70;100.00
11190;BME280;5651;50.926;4.718;2023-01-25T04:22:52;103470.47;;;0.72;100.00
11190;BME280;5651;50.926;4.718;2023-01-25T04:25:18;103472.13;;;0.72;100.00
11190;BME280;5651;50.926;4.718;2023-01-25T04:27:43;103467.81;;;0.71;100.00
11190;BME280;5651;50.926;4.718;2023-01-25T04:30:10;103472.53;;;0.44;100.00
11190;BME280;5651;50.926;4.718;2023-01-25T04:32:36;103469.56;;;0.50;100.00
11190;BME280;5651;50.926;4.718;2023-01-25T04:35:01;103468.44;;;0.46;100.00
11190;BME280;5651;50.926;4.718;2023-01-25T04:37:27;103462.53;;;0.47;100.00
11190;BME280;5651;50.926;4.718;2023-01-25T04:39:53;103468.13;;;0.53;100.00
11190;BME280;5651;50.926;4.718;2023-01-25T04:42:19;103463.00;;;0.53;100.00
11190;BME280;5651;50.926;4.718;2023-01-25T04:44:44;103461.69;;;0.58;100.00
11190;BME280;5651;50.926;4.718;2023-01-25T04:47:10;103456.56;;;0.58;100.00
11190;BME280;5651;50.926;4.718;2023-01-25T04:49:35;103459.13;;;0.58;100.00
11190;BME280;5651;50.926;4.718;2023-01-25T04:52:01;103456.69;;;0.60;100.00
11190;BME280;5651;50.926;4.718;2023-01-25T04:54:27;103452.34;;;0.59;100.00
11190;BME280;5651;50.926;4.718;2023-01-25T04:56:53;103454.00;;;0.58;100.00
11190;BME280;5651;50.926;4.718;2023-01-25T04:59:18;103460.91;;;0.59;100.00
11190;BME280;5651;50.926;4.718;2023-01-25T05:01:44;103461.22;;;0.52;100.00
11190;BME280;5651;50.926;4.718;2023-01-25T05:04:10;103457.25;;;0.45;100.00
11190;BME280;5651;50.926;4.718;2023-01-25T05:06:35;103461.88;;;0.50;100.00
11190;BME280;5651;50.926;4.718;2023-01-25T05:09:01;103456.38;;;0.45;100.00
11190;BME280;5651;50.926;4.718;2023-01-25T05:11:27;103453.03;;;0.46;100.00
11190;BME280;5651;50.926;4.718;2023-01-25T05:13:52;103454.28;;;0.51;100.00
11190;BME280;5651;50.926;4.718;2023-01-25T05:16:19;103453.88;;;0.57;100.00
11190;BME280;5651;50.926;4.718;2023-01-25T05:18:45;103444.50;;;0.57;100.00
11190;BME280;5651;50.926;4.718;2023-01-25T05:21:10;103446.94;;;0.56;100.00
11190;BME280;5651;50.926;4.718;2023-01-25T05:23:56;103445.16;;;0.55;100.00
11190;BME280;5651;50.926;4.718;2023-01-25T05:26:22;103440.03;;;0.55;100.00
11190;BME280;5651;50.926;4.718;2023-01-25T05:29:08;103438.38;;;0.55;100.00
11190;BME280;5651;50.926;4.718;2023-01-25T05:31:34;103431.56;;;0.56;100.00
11190;BME280;5651;50.926;4.718;2023-01-25T05:34:00;103435.81;;;0.55;100.00
11190;BME280;5651;50.926;4.718;2023-01-25T05:36:26;103426.06;;;0.51;100.00
11190;BME280;5651;50.926;4.718;2023-01-25T05:38:51;103429.78;;;0.55;100.00
11190;BME280;5651;50.926;4.718;2023-01-25T05:41:17;103426.22;;;0.53;100.00
11190;BME280;5651;50.926;4.718;2023-01-25T05:43:46;103425.28;;;0.52;100.00
11190;BME280;5651;50.926;4.718;2023-01-25T05:46:12;103421.78;;;0.40;100.00
11190;BME280;5651;50.926;4.718;2023-01-25T05:48:39;103419.34;;;0.31;100.00
11190;BME280;5651;50.926;4.718;2023-01-25T05:51:05;103419.34;;;0.31;100.00
11190;BME280;5651;50.926;4.718;2023-01-25T05:53:31;103413.91;;;0.26;100.00
11190;BME280;5651;50.926;4.718;2023-01-25T05:56:03;103424.41;;;0.19;100.00
11190;BME280;5651;50.926;4.718;2023-01-25T05:58:29;103420.56;;;0.24;100.00
11190;BME280;5651;50.926;4.718;2023-01-25T06:00:55;103427.34;;;0.24;100.00
11190;BME280;5651;50.926;4.718;2023-01-25T06:03:20;103428.25;;;0.24;100.00
11190;BME280;5651;50.926;4.718;2023-01-25T06:05:46;103423.88;;;0.23;100.00
11190;BME280;5651;50.926;4.718;2023-01-25T06:08:12;103422.22;;;0.24;100.00
11190;BME280;5651;50.926;4.718;2023-01-25T06:10:37;103429.69;;;0.21;100.00
11190;BME280;5651;50.926;4.718;2023-01-25T06:13:03;103430.84;;;0.14;100.00
11190;BME280;5651;50.926;4.718;2023-01-25T06:15:29;103429.97;;;0.13;100.00
11190;BME280;5651;50.926;4.718;2023-01-25T06:17:55;103427.63;;;0.17;100.00
11190;BME280;5651;50.926;4.718;2023-01-25T06:20:21;103423.78;;;0.22;100.00
11190;BME280;5651;50.926;4.718;2023-01-25T06:22:50;103423.41;;;0.17;100.00
11190;BME280;5651;50.926;4.718;2023-01-25T06:25:17;103417.50;;;0.18;100.00
11190;BME280;5651;50.926;4.718;2023-01-25T06:27:43;103417.00;;;0.12;100.00
11190;BME280;5651;50.926;4.718;2023-01-25T06:30:09;103418.69;;;0.11;100.00
11190;BME280;5651;50.926;4.718;2023-01-25T06:32:35;103418.56;;;0.10;100.00
11190;BME280;5651;50.926;4.718;2023-01-25T06:35:01;103417.50;;;0.18;100.00
11190;BME280;5651;50.926;4.718;2023-01-25T06:37:27;103413.25;;;0.19;100.00
11190;BME280;5651;50.926;4.718;2023-01-25T06:39:52;103413.53;;;0.11;100.00
11190;BME280;5651;50.926;4.718;2023-01-25T06:42:18;103412.41;;;0.08;100.00
11190;BME280;5651;50.926;4.718;2023-01-25T06:44:44;103418.13;;;0.15;100.00
11190;BME280;5651;50.926;4.718;2023-01-25T06:47:10;103419.53;;;0.22;100.00
11190;BME280;5651;50.926;4.718;2023-01-25T06:49:37;103410.69;;;0.19;100.00
11190;BME280;5651;50.926;4.718;2023-01-25T06:52:03;103412.59;;;0.21;100.00
11190;BME280;5651;50.926;4.718;2023-01-25T06:54:28;103410.03;;;0.21;100.00
11190;BME280;5651;50.926;4.718;2023-01-25T06:56:54;103423.63;;;0.20;100.00
11190;BME280;5651;50.926;4.718;2023-01-25T06:59:20;103417.84;;;0.23;100.00
11190;BME280;5651;50.926;4.718;2023-01-25T07:01:47;103426.34;;;0.22;100.00
11190;BME280;5651;50.926;4.718;2023-01-25T07:04:13;103423.13;;;0.24;100.00
11190;BME280;5651;50.926;4.718;2023-01-25T07:06:38;103422.47;;;0.27;100.00
11190;BME280;5651;50.926;4.718;2023-01-25T07:09:10;103425.91;;;0.27;100.00
11190;BME280;5651;50.926;4.718;2023-01-25T07:11:37;103424.00;;;0.25;100.00
11190;BME280;5651;50.926;4.718;2023-01-25T07:14:04;103411.06;;;0.23;100.00
11190;BME280;5651;50.926;4.718;2023-01-25T07:16:30;103406.72;;;0.22;100.00
11190;BME280;5651;50.926;4.718;2023-01-25T07:19:10;103412.59;;;0.21;100.00
11190;BME280;5651;50.926;4.718;2023-01-25T07:21:37;103410.16;;;0.23;100.00
11190;BME280;5651;50.926;4.718;2023-01-25T07:24:04;103409.03;;;0.19;100.00
11190;BME280;5651;50.926;4.718;2023-01-25T07:26:30;103407.75;;;0.14;100.00
11190;BME280;5651;50.926;4.718;2023-01-25T07:28:57;103400.25;;;0.05;100.00
11190;BME280;5651;50.926;4.718;2023-01-25T07:31:23;103396.25;;;0.09;100.00
11190;BME280;5651;50.926;4.718;2023-01-25T07:33:54;103393.22;;;0.03;100.00
11190;BME280;5651;50.926;4.718;2023-01-25T07:36:21;103395.00;;;0.04;100.00
11190;BME280;5651;50.926;4.718;2023-01-25T07:38:51;103399.84;;;0.11;100.00
11190;BME280;5651;50.926;4.718;2023-01-25T07:41:18;103403.03;;;0.08;100.00
11190;BME280;5651;50.926;4.718;2023-01-25T07:43:43;103399.97;;;0.02;100.00
11190;BME280;5651;50.926;4.718;2023-01-25T07:46:10;103404.22;;;0.02;100.00
11190;BME280;5651;50.926;4.718;2023-01-25T07:48:37;103401.13;;;0.06;100.00
11190;BME280;5651;50.926;4.718;2023-01-25T07:51:04;103394.56;;;0.09;100.00
11190;BME280;5651;50.926;4.718;2023-01-25T07:53:38;103397.03;;;0.08;100.00
11190;BME280;5651;50.926;4.718;2023-01-25T07:56:05;103399.59;;;0.08;100.00
11190;BME280;5651;50.926;4.718;2023-01-25T07:58:31;103395.50;;;0.10;100.00
11190;BME280;5651;50.926;4.718;2023-01-25T08:00:56;103395.34;;;0.08;100.00
11190;BME280;5651;50.926;4.718;2023-01-25T08:03:22;103403.03;;;0.08;100.00
11190;BME280;5651;50.926;4.718;2023-01-25T08:05:47;103396.25;;;0.09;100.00
11190;BME280;5651;50.926;4.718;2023-01-25T08:08:14;103400.72;;;0.11;100.00
11190;BME280;5651;50.926;4.718;2023-01-25T08:10:39;103396.25;;;0.09;100.00
11190;BME280;5651;50.926;4.718;2023-01-25T08:13:05;103398.06;;;0.10;100.00
11190;BME280;5651;50.926;4.718;2023-01-25T08:15:31;103391.13;;;0.09;100.00
11190;BME280;5651;50.926;4.718;2023-01-25T08:18:00;103391.13;;;0.09;100.00
11190;BME280;5651;50.926;4.718;2023-01-25T08:20:26;103395.72;;;0.13;100.00
11190;BME280;5651;50.926;4.718;2023-01-25T08:22:52;103388.69;;;0.10;100.00
11190;BME280;5651;50.926;4.718;2023-01-25T08:25:18;103388.94;;;0.13;100.00
11190;BME280;5651;50.926;4.718;2023-01-25T08:27:43;103382.91;;;0.13;100.00
11190;BME280;5651;50.926;4.718;2023-01-25T08:30:10;103387.38;;;0.15;100.00
11190;BME280;5651;50.926;4.718;2023-01-25T08:32:37;103378.78;;;0.15;100.00
11190;BME280;5651;50.926;4.718;2023-01-25T08:35:03;103389.31;;;0.18;100.00
11190;BME280;5651;50.926;4.718;2023-01-25T08:37:29;103384.19;;;0.18;100.00
11190;BME280;5651;50.926;4.718;2023-01-25T08:39:55;103384.81;;;0.15;100.00
11190;BME280;5651;50.926;4.718;2023-01-25T08:42:24;103386.50;;;0.15;100.00
11190;BME280;5651;50.926;4.718;2023-01-25T08:44:50;103386.84;;;0.20;100.00
11190;BME280;5651;50.926;4.718;2023-01-25T08:47:16;103381.47;;;0.17;100.00
11190;BME280;5651;50.926;4.718;2023-01-25T08:49:41;103375.97;;;0.12;100.00
11190;BME280;5651;50.926;4.718;2023-01-25T08:52:07;103370.22;;;0.14;100.00
11190;BME280;5651;50.926;4.718;2023-01-25T08:54:33;103365.44;;;0.19;100.00
11190;BME280;5651;50.926;4.718;2023-01-25T08:57:00;103365.97;;;0.15;100.00
11190;BME280;5651;50.926;4.718;2023-01-25T08:59:26;103364.19;;;0.14;100.00
11190;BME280;5651;50.926;4.718;2023-01-25T09:01:51;103371.34;;;0.18;100.00
11190;BME280;5651;50.926;4.718;2023-01-25T09:04:17;103370.34;;;0.16;100.00
11190;BME280;5651;50.926;4.718;2023-01-25T09:06:43;103366.75;;;0.14;100.00
11190;BME280;5651;50.926;4.718;2023-01-25T09:09:11;103368.28;;;0.12;100.00
11190;BME280;5651;50.926;4.718;2023-01-25T09:11:37;103366.75;;;0.14;100.00
11190;BME280;5651;50.926;4.718;2023-01-25T09:14:07;103369.59;;;0.07;100.00
11190;BME280;5651;50.926;4.718;2023-01-25T09:16:33;103371.75;;;0.12;100.00
11190;BME280;5651;50.926;4.718;2023-01-25T09:19:00;103370.06;;;0.13;100.00
11190;BME280;5651;50.926;4.718;2023-01-25T09:21:27;103375.34;;;0.14;100.00
11190;BME280;5651;50.926;4.718;2023-01-25T09:23:54;103373.28;;;0.21;100.00
11190;BME280;5651;50.926;4.718;2023-01-25T09:26:20;103374.16;;;0.21;100.00
11190;BME280;5651;50.926;4.718;2023-01-25T09:28:48;103376.59;;;0.20;100.00
11190;BME280;5651;50.926;4.718;2023-01-25T09:31:14;103372.25;;;0.19;100.00
11190;BME280;5651;50.926;4.718;2023-01-25T09:33:40;103368.66;;;0.17;100.00
11190;BME280;5651;50.926;4.718;2023-01-25T09:36:07;103373.38;;;0.22;100.00
11190;BME280;5651;50.926;4.718;2023-01-25T09:38:32;103372.06;;;0.27;100.00
11190;BME280;5651;50.926;4.718;2023-01-25T09:44:34;103372.72;;;0.25;100.00
11190;BME280;5651;50.926;4.718;2023-01-25T09:55:35;103369.78;;;0.20;100.00
11190;BME280;5651;50.926;4.718;2023-01-25T09:58:02;103360.94;;;0.27;100.00
11190;BME280;5651;50.926;4.718;2023-01-25T10:00:35;103365.94;;;0.25;100.00
11190;BME280;5651;50.926;4.718;2023-01-25T10:05:48;103360.81;;;0.25;100.00
11190;BME280;5651;50.926;4.718;2023-01-25T10:10:42;103353.03;;;0.36;100.00
11190;BME280;5651;50.926;4.718;2023-01-25T10:13:13;103356.38;;;0.35;100.00
11190;BME280;5651;50.926;4.718;2023-01-25T10:15:43;103347.56;;;0.31;100.00
11190;BME280;5651;50.926;4.718;2023-01-25T10:21:04;103352.34;;;0.49;100.00
11190;BME280;5651;50.926;4.718;2023-01-25T10:26:36;103349.31;;;0.42;100.00
11190;BME280;5651;50.926;4.718;2023-01-25T10:29:09;103338.94;;;0.41;100.00
11190;BME280;5651;50.926;4.718;2023-01-25T10:31:41;103340.44;;;0.49;100.00
11190;BME280;5651;50.926;4.718;2023-01-25T10:34:16;103346.28;;;0.36;100.00
11190;BME280;5651;50.926;4.718;2023-01-25T10:36:54;103341.91;;;0.35;100.00
11190;BME280;5651;50.926;4.718;2023-01-25T10:39:20;103337.72;;;0.47;100.00
11190;BME280;5651;50.926;4.718;2023-01-25T10:41:53;103328.69;;;0.41;100.00
11190;BME280;5651;50.926;4.718;2023-01-25T10:44:21;103324.06;;;0.37;100.00
11190;BME280;5651;50.926;4.718;2023-01-25T10:47:03;103318.16;;;0.38;100.00
11190;BME280;5651;50.926;4.718;2023-01-25T10:54:39;103298.69;;;0.40;100.00
11190;BME280;5651;50.926;4.718;2023-01-25T10:57:07;103298.13;;;0.44;100.00
11190;BME280;5651;50.926;4.718;2023-01-25T10:59:34;103293.34;;;0.49;100.00
11190;BME280;5651;50.926;4.718;2023-01-25T11:05:31;103277.91;;;0.37;100.00
11190;BME280;5651;50.926;4.718;2023-01-25T11:07:56;103270.69;;;0.43;100.00
11190;BME280;5651;50.926;4.718;2023-01-25T11:10:32;103263.34;;;0.47;100.00
11190;BME280;5651;50.926;4.718;2023-01-25T11:18:31;103242.78;;;0.36;100.00
11190;BME280;5651;50.926;4.718;2023-01-25T11:21:04;103241.34;;;0.39;100.00
11190;BME280;5651;50.926;4.718;2023-01-25T11:23:31;103234.34;;;0.49;100.00
11190;BME280;5651;50.926;4.718;2023-01-25T11:26:15;103229.13;;;0.47;100.00
11190;BME280;5651;50.926;4.718;2023-01-25T11:28:42;103229.13;;;0.47;100.00
11190;BME280;5651;50.926;4.718;2023-01-25T11:31:13;103230.91;;;0.48;100.00
11190;BME280;5651;50.926;4.718;2023-01-25T11:33:40;103224.44;;;0.53;100.00
11190;BME280;5651;50.926;4.718;2023-01-25T11:37:01;103223.41;;;0.51;100.00
11190;BME280;5651;50.926;4.718;2023-01-25T11:39:09;103208.69;;;0.49;100.00
11190;BME280;5651;50.926;4.718;2023-01-25T11:47:25;103191.63;;;0.37;100.00
11190;BME280;5651;50.926;4.718;2023-01-25T12:04:05;103145.25;;;0.58;100.00
11190;BME280;5651;50.926;4.718;2023-01-25T12:06:56;103141.47;;;0.53;100.00
11190;BME280;5651;50.926;4.718;2023-01-25T12:17:22;103125.50;;;0.45;100.00
11190;BME280;5651;50.926;4.718;2023-01-25T12:22:45;103106.53;;;0.43;100.00
11190;BME280;5651;50.926;4.718;2023-01-25T12:32:53;103084.13;;;0.52;100.00
11190;BME280;5651;50.926;4.718;2023-01-25T12:35:24;103081.66;;;0.54;100.00
11190;BME280;5651;50.926;4.718;2023-01-25T12:37:57;103073.09;;;0.53;100.00
11190;BME280;5651;50.926;4.718;2023-01-25T12:40:35;103069.75;;;0.42;100.00
11190;BME280;5651;50.926;4.718;2023-01-25T12:43:13;103065.16;;;0.38;100.00
11190;BME280;5651;50.926;4.718;2023-01-25T12:45:40;103057.28;;;0.47;100.00
11190;BME280;5651;50.926;4.718;2023-01-25T12:48:27;103057.47;;;0.50;100.00
11190;BME280;5651;50.926;4.718;2023-01-25T12:50:58;103046.00;;;0.69;100.00
11190;BME280;5651;50.926;4.718;2023-01-25T12:53:37;103031.19;;;0.53;100.00
11190;BME280;5651;50.926;4.718;2023-01-25T12:56:09;103026.16;;;0.54;100.00
11190;BME280;5651;50.926;4.718;2023-01-25T12:58:41;103024.38;;;0.53;100.00
11190;BME280;5651;50.926;4.718;2023-01-25T13:01:19;103022.56;;;0.52;100.00
11190;BME280;5651;50.926;4.718;2023-01-25T13:06:30;103014.63;;;0.73;100.00
11190;BME280;5651;50.926;4.718;2023-01-25T13:11:37;102996.16;;;0.53;100.00
11190;BME280;5651;50.926;4.718;2023-01-25T13:16:43;102989.47;;;0.55;100.00
11190;BME280;5651;50.926;4.718;2023-01-25T13:19:37;102983.84;;;0.61;100.00
11190;BME280;5651;50.926;4.718;2023-01-25T13:22:03;102983.41;;;0.67;100.00
11190;BME280;5651;50.926;4.718;2023-01-25T13:24:30;102976.72;;;0.69;100.00
11190;BME280;5651;50.926;4.718;2023-01-25T13:27:03;102972.38;;;0.68;100.00
11190;BME280;5651;50.926;4.718;2023-01-25T13:32:02;102967.97;;;0.78;100.00
11190;BME280;5651;50.926;4.718;2023-01-25T13:37:01;102957.16;;;0.83;100.00
11190;BME280;5651;50.926;4.718;2023-01-25T13:42:17;102959.06;;;0.85;100.00
11190;BME280;5651;50.926;4.718;2023-01-25T13:44:46;102951.34;;;0.85;100.00
11190;BME280;5651;50.926;4.718;2023-01-25T13:47:15;102947.00;;;0.84;100.00
11190;BME280;5651;50.926;4.718;2023-01-25T13:49:47;102943.69;;;0.73;100.00
11190;BME280;5651;50.926;4.718;2023-01-25T13:52:19;102944.06;;;0.91;100.00
11190;BME280;5651;50.926;4.718;2023-01-25T13:54:47;102938.47;;;0.97;100.00
11190;BME280;5651;50.926;4.718;2023-01-25T13:57:18;102942.56;;;0.82;100.00
11190;BME280;5651;50.926;4.718;2023-01-25T13:59:45;102929.41;;;0.77;100.00
11190;BME280;5651;50.926;4.718;2023-01-25T14:02:22;102929.19;;;0.74;100.00
11190;BME280;5651;50.926;4.718;2023-01-25T14:04:49;102932.97;;;0.79;100.00
11190;BME280;5651;50.926;4.718;2023-01-25T14:07:18;102931.63;;;0.72;100.00
11190;BME280;5651;50.926;4.718;2023-01-25T14:09:47;102937.91;;;0.64;100.00
11190;BME280;5651;50.926;4.718;2023-01-25T14:12:29;102930.03;;;0.49;100.00
11190;BME280;5651;50.926;4.718;2023-01-25T14:14:55;102924.22;;;0.52;100.00
11190;BME280;5651;50.926;4.718;2023-01-25T14:17:23;102918.00;;;0.48;100.00
11190;BME280;5651;50.926;4.718;2023-01-25T14:19:53;102930.56;;;0.57;100.00
11190;BME280;5651;50.926;4.718;2023-01-25T14:22:27;102928.81;;;0.44;100.00
11190;BME280;5651;50.926;4.718;2023-01-25T14:25:19;102933.38;;;0.48;100.00
11190;BME280;5651;50.926;4.718;2023-01-25T14:28:14;102930.59;;;0.45;100.00
11190;BME280;5651;50.926;4.718;2023-01-25T14:30:40;102928.16;;;0.35;100.00
11190;BME280;5651;50.926;4.718;2023-01-25T14:33:19;102932.72;;;0.39;100.00
11190;BME280;5651;50.926;4.718;2023-01-25T14:35:47;102937.50;;;0.46;100.00
11190;BME280;5651;50.926;4.718;2023-01-25T14:40:48;102937.50;;;0.46;100.00
11190;BME280;5651;50.926;4.718;2023-01-25T14:43:16;102934.97;;;0.34;100.00
11190;BME280;5651;50.926;4.718;2023-01-25T14:45:42;102934.19;;;0.23;100.00
11190;BME280;5651;50.926;4.718;2023-01-25T14:48:37;102934.72;;;0.19;100.00